createdAt,value
2022-12-26T00:03:30.873Z,100366.60
2022-12-26T00:08:42.644Z,100343.20
2022-12-26T00:13:57.950Z,100327.80
2022-12-26T00:19:08.112Z,100321.20
2022-12-26T00:24:17.651Z,100314.40
2022-12-26T00:29:27.602Z,100332.20
2022-12-26T00:34:37.417Z,100325.40
2022-12-26T00:39:47.609Z,100334.20
2022-12-26T00:44:57.314Z,100315.40
2022-12-26T00:50:12.450Z,100322.60
2022-12-26T00:55:24.799Z,100308.40
2022-12-26T01:00:34.686Z,100316.40
2022-12-26T01:05:50.005Z,100300.00
2022-12-26T01:10:59.917Z,100297.20
2022-12-26T01:16:12.338Z,100289.60
2022-12-26T01:21:21.971Z,100288.00
2022-12-26T01:26:31.578Z,100271.20
2022-12-26T01:31:41.252Z,100255.80
2022-12-26T01:36:51.006Z,100259.20
2022-12-26T01:42:00.646Z,100238.00
2022-12-26T01:47:10.348Z,100221.20
2022-12-26T01:52:27.808Z,100209.20
2022-12-26T01:57:45.953Z,100233.00
2022-12-26T02:03:13.708Z,100216.00
2022-12-26T02:08:30.850Z,100194.00
2022-12-26T02:13:43.323Z,100178.80
2022-12-26T02:18:53.230Z,100154.40
2022-12-26T02:24:51.036Z,100162.80
2022-12-26T02:30:27.727Z,100158.60
2022-12-26T02:35:59.443Z,100143.60
2022-12-26T02:41:26.853Z,100113.80
2022-12-26T02:47:06.484Z,100090.20
2022-12-26T02:52:41.150Z,100080.40
2022-12-26T02:58:18.538Z,100082.60
2022-12-26T03:03:53.189Z,100054.00
2022-12-26T03:09:26.804Z,100037.80
2022-12-26T03:14:47.320Z,100037.80
2022-12-26T03:20:04.355Z,100023.20
2022-12-26T03:25:37.064Z,100030.80
2022-12-26T03:30:52.970Z,100010.80
2022-12-26T03:36:04.535Z,99989.20
2022-12-26T03:41:46.008Z,99980.40
2022-12-26T03:47:31.204Z,99990.80
2022-12-26T03:53:08.886Z,99975.20
2022-12-26T03:58:38.923Z,99966.80
2022-12-26T04:04:11.418Z,99954.80
2022-12-26T04:09:47.906Z,99939.20
2022-12-26T04:15:20.863Z,99933.20
2022-12-26T04:20:44.243Z,99933.80
2022-12-26T04:26:21.667Z,99946.60
2022-12-26T04:31:54.659Z,99955.80
2022-12-26T04:37:28.746Z,99915.40
2022-12-26T04:42:57.669Z,99919.60
2022-12-26T04:48:25.557Z,99909.60
2022-12-26T04:53:35.489Z,99901.20
2022-12-26T04:58:45.117Z,99896.00
2022-12-26T05:04:12.352Z,99869.20
2022-12-26T05:09:36.062Z,99852.20
2022-12-26T05:14:45.798Z,99830.80
2022-12-26T05:20:13.587Z,99833.20
2022-12-26T05:25:47.506Z,99849.80
2022-12-26T05:30:57.502Z,99845.60
2022-12-26T05:36:08.014Z,99826.40
2022-12-26T05:41:17.984Z,99800.00
2022-12-26T05:46:27.642Z,99809.20
2022-12-26T05:51:37.768Z,99793.40
2022-12-26T05:56:49.473Z,99785.00
2022-12-26T06:01:59.772Z,99762.20
2022-12-26T06:07:09.683Z,99760.00
2022-12-26T06:12:19.770Z,99745.80
2022-12-26T06:17:29.574Z,99729.80
2022-12-26T06:22:38.976Z,99731.60
2022-12-26T06:27:49.497Z,99709.80
2022-12-26T06:32:59.287Z,99699.20
2022-12-26T06:38:09.132Z,99702.20
2022-12-26T06:43:18.915Z,99684.40
2022-12-26T06:48:28.900Z,99666.00
2022-12-26T06:53:39.283Z,99662.80
2022-12-26T06:58:53.962Z,99638.40
2022-12-26T07:04:04.591Z,99650.20
2022-12-26T07:09:17.804Z,99638.80
2022-12-26T07:14:27.736Z,99629.00
2022-12-26T07:19:37.607Z,99625.40
2022-12-26T07:24:47.229Z,99616.80
2022-12-26T07:29:56.960Z,99630.20
2022-12-26T07:35:07.279Z,99623.40
2022-12-26T07:40:18.044Z,99605.60
2022-12-26T07:45:27.633Z,99606.80
2022-12-26T07:50:37.522Z,99610.60
2022-12-26T07:55:48.751Z,99598.00
2022-12-26T08:01:01.940Z,99591.60
2022-12-26T08:06:13.026Z,99583.60
2022-12-26T08:11:26.200Z,99584.80
2022-12-26T08:16:35.983Z,99588.60
2022-12-26T08:21:45.634Z,99568.60
2022-12-26T08:26:55.273Z,99565.40
2022-12-26T08:32:04.820Z,99560.40
2022-12-26T08:37:14.416Z,99554.80
2022-12-26T08:42:25.262Z,99546.80
2022-12-26T08:47:35.076Z,99546.80
2022-12-26T08:52:45.048Z,99534.60
2022-12-26T08:57:54.661Z,99536.20
2022-12-26T09:03:04.216Z,99528.40
2022-12-26T09:08:15.526Z,99517.00
2022-12-26T09:13:25.068Z,99503.20
2022-12-26T09:18:34.800Z,99497.80
2022-12-26T09:23:45.291Z,99501.60
2022-12-26T09:28:55.789Z,99495.00
2022-12-26T09:34:07.438Z,99510.00
2022-12-26T09:39:17.139Z,99503.60
2022-12-26T09:44:32.564Z,99495.80
2022-12-26T09:49:52.468Z,99492.80
2022-12-26T09:55:08.353Z,99485.80
2022-12-26T10:00:26.949Z,99486.40
2022-12-26T10:05:45.754Z,99482.80
2022-12-26T10:11:04.555Z,99466.80
2022-12-26T10:16:21.646Z,99469.00
2022-12-26T10:21:47.304Z,99472.20
2022-12-26T10:27:12.469Z,99463.80
2022-12-26T10:32:31.315Z,99460.40
2022-12-26T10:37:43.982Z,99455.00
2022-12-26T10:42:57.304Z,99450.40
2022-12-26T10:48:08.981Z,99456.00
2022-12-26T10:53:21.116Z,99439.40
2022-12-26T10:58:37.650Z,99436.80
2022-12-26T11:04:00.150Z,99425.80
2022-12-26T11:09:24.378Z,99422.40
2022-12-26T11:14:42.859Z,99426.20
2022-12-26T11:20:10.839Z,99423.60
2022-12-26T11:25:28.421Z,99414.80
2022-12-26T11:30:41.847Z,99411.40
2022-12-26T11:36:02.258Z,99410.40
2022-12-26T11:41:37.021Z,99404.20
2022-12-26T11:46:52.631Z,99404.60
2022-12-26T11:52:05.115Z,99406.80
2022-12-26T11:57:31.455Z,99411.80
2022-12-26T12:02:44.627Z,99418.40
2022-12-26T12:08:31.972Z,99416.00
2022-12-26T12:14:01.729Z,99409.40
2022-12-26T12:19:28.771Z,99411.00
2022-12-26T12:25:01.797Z,99408.60
2022-12-26T12:30:24.618Z,99414.40
2022-12-26T12:35:54.563Z,99413.20
2022-12-26T12:41:22.961Z,99408.60
2022-12-26T12:46:45.381Z,99408.40
2022-12-26T12:52:07.906Z,99412.40
2022-12-26T12:57:27.603Z,99421.20
2022-12-26T13:02:44.704Z,99418.80
2022-12-26T13:08:01.979Z,99433.00
2022-12-26T13:13:23.623Z,99427.20
2022-12-26T13:18:40.055Z,99428.00
2022-12-26T13:24:14.117Z,99429.20
2022-12-26T13:29:36.023Z,99433.60
2022-12-26T13:34:48.915Z,99445.40
2022-12-26T13:39:59.432Z,99447.20
2022-12-26T13:45:57.594Z,99459.60
2022-12-26T13:51:29.510Z,99463.60
2022-12-26T13:57:25.465Z,99467.20
2022-12-26T14:03:19.195Z,99471.40
2022-12-26T14:08:51.317Z,99469.20
2022-12-26T14:14:23.525Z,99464.40
2022-12-26T14:19:51.803Z,99473.80
2022-12-26T14:25:21.346Z,99482.60
2022-12-26T14:30:40.567Z,99483.00
2022-12-26T14:36:04.746Z,99484.20
2022-12-26T14:41:32.422Z,99496.00
2022-12-26T14:47:06.611Z,99491.00
2022-12-26T14:52:43.606Z,99488.60
2022-12-26T14:57:54.946Z,99477.20
2022-12-26T15:03:53.664Z,99483.00
2022-12-26T15:09:26.381Z,99475.60
2022-12-26T15:15:27.989Z,99495.00
2022-12-26T15:21:10.879Z,99499.40
2022-12-26T15:27:05.265Z,99500.60
2022-12-26T15:32:25.599Z,99497.80
2022-12-26T15:38:01.344Z,99506.80
2022-12-26T15:43:46.666Z,99515.00
2022-12-26T15:49:24.075Z,99494.80
2022-12-26T15:55:10.704Z,99476.40
2022-12-26T16:00:28.388Z,99457.20
2022-12-26T16:06:14.690Z,99470.20
2022-12-26T16:11:30.842Z,99477.00
2022-12-26T16:16:41.732Z,99481.60
2022-12-26T16:22:13.343Z,99489.00
2022-12-26T16:27:26.843Z,99488.20
2022-12-26T16:32:43.021Z,99486.60
2022-12-26T16:37:54.646Z,99484.00
2022-12-26T16:43:08.819Z,99477.20
2022-12-26T16:48:22.186Z,99496.00
2022-12-26T16:53:48.601Z,99493.60
2022-12-26T16:59:11.509Z,99504.20
2022-12-26T17:04:27.996Z,99489.40
2022-12-26T17:09:52.428Z,99494.00
2022-12-26T17:15:06.576Z,99496.20
2022-12-26T17:20:41.719Z,99501.00
2022-12-26T17:25:51.543Z,99509.00
2022-12-26T17:31:18.198Z,99500.00
2022-12-26T17:37:16.341Z,99506.40
2022-12-26T17:42:07.554Z,99500.60
2022-12-26T17:47:24.397Z,99509.60
2022-12-26T17:52:36.038Z,99518.40
2022-12-26T17:57:46.262Z,99522.40
2022-12-26T18:02:56.746Z,99525.40
2022-12-26T18:08:07.635Z,99541.80
2022-12-26T18:13:20.424Z,99545.00
2022-12-26T18:18:36.267Z,99551.00
2022-12-26T18:23:46.548Z,99560.00
2022-12-26T18:28:57.356Z,99550.40
2022-12-26T18:34:07.088Z,99542.00
2022-12-26T18:39:19.825Z,99545.20
2022-12-26T18:44:29.694Z,99555.20
2022-12-26T18:49:39.338Z,99558.00
2022-12-26T18:54:49.121Z,99556.80
2022-12-26T18:59:59.052Z,99564.80
2022-12-26T19:05:16.330Z,99559.20
2022-12-26T19:10:31.927Z,99560.20
2022-12-26T19:15:46.093Z,99552.60
2022-12-26T19:20:56.231Z,99532.60
2022-12-26T19:26:12.003Z,99537.00
2022-12-26T19:31:22.397Z,99529.20
2022-12-26T19:36:32.529Z,99529.60
2022-12-26T19:41:42.134Z,99540.80
2022-12-26T19:47:11.026Z,99546.80
2022-12-26T19:52:21.932Z,99540.60
2022-12-26T19:57:31.974Z,99537.60
2022-12-26T20:02:41.807Z,99540.80
2022-12-26T20:07:52.257Z,99554.00
2022-12-26T20:13:02.138Z,99555.00
2022-12-26T20:18:14.862Z,99557.40
2022-12-26T20:23:25.271Z,99555.00
2022-12-26T20:28:36.199Z,99543.80
2022-12-26T20:33:49.900Z,99534.00
2022-12-26T20:39:02.558Z,99547.80
2022-12-26T20:44:14.037Z,99523.20
2022-12-26T20:49:24.030Z,99525.20
2022-12-26T20:54:33.844Z,99553.60
2022-12-26T20:59:43.813Z,99549.20
2022-12-26T21:04:56.116Z,99549.00
2022-12-26T21:10:06.397Z,99554.20
2022-12-26T21:15:16.316Z,99563.40
2022-12-26T21:20:26.032Z,99572.20
2022-12-26T21:25:36.842Z,99570.60
2022-12-26T21:30:50.831Z,99571.40
2022-12-26T21:36:01.102Z,99560.40
2022-12-26T21:41:14.299Z,99564.60
2022-12-26T21:46:24.735Z,99559.00
2022-12-26T21:51:35.123Z,99557.60
2022-12-26T21:56:45.011Z,99556.80
2022-12-26T22:01:54.830Z,99558.80
2022-12-26T22:07:04.754Z,99562.20
2022-12-26T22:12:33.306Z,99570.40
2022-12-26T22:17:43.092Z,99563.40
2022-12-26T22:22:53.183Z,99566.60
2022-12-26T22:28:03.584Z,99560.00
2022-12-26T22:33:13.488Z,99569.20
2022-12-26T22:38:24.009Z,99571.20
2022-12-26T22:43:34.300Z,99587.60
2022-12-26T22:48:44.033Z,99580.00
2022-12-26T22:53:56.796Z,99584.20
2022-12-26T22:59:06.675Z,99590.80
2022-12-26T23:04:18.170Z,99589.40
2022-12-26T23:09:29.970Z,99596.20
2022-12-26T23:14:41.074Z,99581.40
2022-12-26T23:20:12.861Z,99584.60
2022-12-26T23:25:23.357Z,99588.00
2022-12-26T23:30:33.166Z,99579.60
2022-12-26T23:35:42.970Z,99592.60
2022-12-26T23:40:52.759Z,99608.40
2022-12-26T23:46:02.705Z,99621.60
2022-12-26T23:51:13.072Z,99623.20
2022-12-26T23:56:22.783Z,99628.20
